sensor_id;sensor_type;location;lat;lon;timestamp;pressure;altitude;pressure_sealevel;temperature;humidity
75208;BME280;63795;55.684;37.864;2023-02-01T00:01:47;98621.47;;;0.31;79.48
75208;BME280;63795;55.684;37.864;2023-02-01T00:06:48;98616.63;;;0.28;79.58
75208;BME280;63795;55.684;37.864;2023-02-01T00:11:48;98627.44;;;0.30;79.56
75208;BME280;63795;55.684;37.864;2023-02-01T00:16:49;98627.44;;;0.30;79.63
75208;BME280;63795;55.684;37.864;2023-02-01T00:21:49;98625.84;;;0.32;79.70
75208;BME280;63795;55.684;37.864;2023-02-01T00:26:49;98622.28;;;0.32;79.48
75208;BME280;63795;55.684;37.864;2023-02-01T00:31:51;98631.09;;;0.34;79.29
75208;BME280;63795;55.684;37.864;2023-02-01T00:36:52;98625.94;;;0.36;79.39
75208;BME280;63795;55.684;37.864;2023-02-01T00:41:52;98630.72;;;0.35;79.42
75208;BME280;63795;55.684;37.864;2023-02-01T00:46:52;98623.59;;;0.38;79.23
75208;BME280;63795;55.684;37.864;2023-02-01T00:51:53;98632.75;;;0.38;78.97
75208;BME280;63795;55.684;37.864;2023-02-01T00:56:53;98630.78;;;0.39;78.94
75208;BME280;63795;55.684;37.864;2023-02-01T01:01:54;98631.59;;;0.39;78.95
75208;BME280;63795;55.684;37.864;2023-02-01T01:06:54;98631.09;;;0.34;79.23
75208;BME280;63795;55.684;37.864;2023-02-01T01:11:55;98621.91;;;0.33;79.00
75208;BME280;63795;55.684;37.864;2023-02-01T01:16:55;98628.72;;;0.36;78.93
75208;BME280;63795;55.684;37.864;2023-02-01T01:21:56;98633.94;;;0.37;78.76
75208;BME280;63795;55.684;37.864;2023-02-01T01:26:56;98637.09;;;0.36;78.77
75208;BME280;63795;55.684;37.864;2023-02-01T01:31:57;98634.66;;;0.34;78.94
75208;BME280;63795;55.684;37.864;2023-02-01T01:36:57;98628.31;;;0.34;78.94
75208;BME280;63795;55.684;37.864;2023-02-01T01:41:58;98629.78;;;0.28;78.83
75208;BME280;63795;55.684;37.864;2023-02-01T01:46:58;98642.97;;;0.31;78.86
75208;BME280;63795;55.684;37.864;2023-02-01T01:52:01;98636.94;;;0.29;79.17
75208;BME280;63795;55.684;37.864;2023-02-01T01:57:07;98636.50;;;0.27;78.92
75208;BME280;63795;55.684;37.864;2023-02-01T02:02:09;98645.25;;;0.25;78.78
75208;BME280;63795;55.684;37.864;2023-02-01T02:07:14;98634.53;;;0.27;78.85
75208;BME280;63795;55.684;37.864;2023-02-01T02:12:16;98632.56;;;0.28;78.83
75208;BME280;63795;55.684;37.864;2023-02-01T02:23:03;98642.66;;;0.36;78.88
75208;BME280;63795;55.684;37.864;2023-02-01T02:44:47;98665.84;;;0.40;78.67
75208;BME280;63795;55.684;37.864;2023-02-01T02:55:45;98662.53;;;0.34;78.85
75208;BME280;63795;55.684;37.864;2023-02-01T03:00:45;98661.66;;;0.30;78.57
75208;BME280;63795;55.684;37.864;2023-02-01T03:06:14;98676.41;;;0.31;78.62
75208;BME280;63795;55.684;37.864;2023-02-01T03:11:16;98660.34;;;0.24;78.87
75208;BME280;63795;55.684;37.864;2023-02-01T03:16:20;98670.75;;;0.27;79.07
75208;BME280;63795;55.684;37.864;2023-02-01T03:21:40;98671.13;;;0.26;79.09
75208;BME280;63795;55.684;37.864;2023-02-01T03:26:49;98670.31;;;0.25;78.96
75208;BME280;63795;55.684;37.864;2023-02-01T03:31:51;98676.63;;;0.22;78.97
75208;BME280;63795;55.684;37.864;2023-02-01T03:36:58;98675.03;;;0.21;79.15
75208;BME280;63795;55.684;37.864;2023-02-01T03:42:09;98672.28;;;0.25;79.30
75208;BME280;63795;55.684;37.864;2023-02-01T03:47:19;98668.69;;;0.24;79.15
75208;BME280;63795;55.684;37.864;2023-02-01T03:57:32;98683.38;;;0.21;79.19
75208;BME280;63795;55.684;37.864;2023-02-01T04:02:34;98695.69;;;0.20;79.03
75208;BME280;63795;55.684;37.864;2023-02-01T04:07:34;98682.19;;;0.22;79.10
75208;BME280;63795;55.684;37.864;2023-02-01T04:12:35;98704.84;;;0.21;79.01
75208;BME280;63795;55.684;37.864;2023-02-01T04:17:35;98700.81;;;0.18;78.91
75208;BME280;63795;55.684;37.864;2023-02-01T04:22:36;98716.75;;;0.18;79.28
75208;BME280;63795;55.684;37.864;2023-02-01T04:27:36;98723.84;;;0.15;79.20
75208;BME280;63795;55.684;37.864;2023-02-01T04:32:38;98722.66;;;0.16;79.25
75208;BME280;63795;55.684;37.864;2023-02-01T04:37:38;98725.88;;;0.18;79.46
75208;BME280;63795;55.684;37.864;2023-02-01T04:42:39;98730.69;;;0.18;79.46
75208;BME280;63795;55.684;37.864;2023-02-01T04:47:39;98735.44;;;0.17;79.47
75208;BME280;63795;55.684;37.864;2023-02-01T04:52:40;98744.16;;;0.16;79.39
75208;BME280;63795;55.684;37.864;2023-02-01T04:57:41;98742.16;;;0.16;79.42
75208;BME280;63795;55.684;37.864;2023-02-01T05:02:42;98748.56;;;0.17;nan
75208;BME280;63795;55.684;37.864;2023-02-01T05:07:42;98758.59;;;0.21;79.22
75208;BME280;63795;55.684;37.864;2023-02-01T05:12:44;98761.03;;;0.23;79.38
75208;BME280;63795;55.684;37.864;2023-02-01T05:18:03;98768.22;;;0.24;79.32
75208;BME280;63795;55.684;37.864;2023-02-01T05:23:03;98767.84;;;0.25;79.23
75208;BME280;63795;55.684;37.864;2023-02-01T05:28:04;98764.25;;;0.25;79.58
75208;BME280;63795;55.684;37.864;2023-02-01T05:33:04;98769.81;;;0.25;79.70
75208;BME280;63795;55.684;37.864;2023-02-01T05:38:05;98761.84;;;0.23;79.60
75208;BME280;63795;55.684;37.864;2023-02-01T05:43:05;98760.75;;;0.28;79.59
75208;BME280;63795;55.684;37.864;2023-02-01T05:48:06;98767.84;;;0.25;79.38
75208;BME280;63795;55.684;37.864;2023-02-01T05:53:06;98778.56;;;0.23;79.55
75208;BME280;63795;55.684;37.864;2023-02-01T05:58:07;98779.00;;;0.25;79.46
75208;BME280;63795;55.684;37.864;2023-02-01T06:03:07;98772.91;;;0.20;79.70
75208;BME280;63795;55.684;37.864;2023-02-01T06:08:08;98780.53;;;0.23;79.60
75208;BME280;63795;55.684;37.864;2023-02-01T06:13:09;98777.38;;;0.24;79.48
75208;BME280;63795;55.684;37.864;2023-02-01T06:18:09;98792.63;;;0.30;79.43
75208;BME280;63795;55.684;37.864;2023-02-01T06:23:10;98800.97;;;0.30;79.33
75208;BME280;63795;55.684;37.864;2023-02-01T06:28:10;98796.88;;;0.24;79.37
75208;BME280;63795;55.684;37.864;2023-02-01T06:33:14;98799.31;;;0.26;79.16
75208;BME280;63795;55.684;37.864;2023-02-01T06:38:15;98814.41;;;0.25;79.13
75208;BME280;63795;55.684;37.864;2023-02-01T06:43:15;98810.34;;;0.22;79.18
75208;BME280;63795;55.684;37.864;2023-02-01T06:48:16;98812.81;;;0.24;79.12
75208;BME280;63795;55.684;37.864;2023-02-01T06:53:16;98800.53;;;0.28;79.20
75208;BME280;63795;55.684;37.864;2023-02-01T06:58:17;98806.28;;;0.35;79.12
75208;BME280;63795;55.684;37.864;2023-02-01T07:03:17;98801.22;;;0.41;79.17
75208;BME280;63795;55.684;37.864;2023-02-01T07:08:17;98810.84;;;0.43;78.82
75208;BME280;63795;55.684;37.864;2023-02-01T07:13:18;98810.03;;;0.43;78.95
75208;BME280;63795;55.684;37.864;2023-02-01T07:18:19;98815.16;;;0.41;78.63
75208;BME280;63795;55.684;37.864;2023-02-01T07:23:19;98816.09;;;0.29;78.69
75208;BME280;63795;55.684;37.864;2023-02-01T07:28:20;98824.97;;;0.35;78.58
75208;BME280;63795;55.684;37.864;2023-02-01T07:33:22;98829.91;;;0.41;78.34
75208;BME280;63795;55.684;37.864;2023-02-01T07:38:23;98831.44;;;0.39;78.53
75208;BME280;63795;55.684;37.864;2023-02-01T07:43:23;98841.44;;;0.40;78.46
75208;BME280;63795;55.684;37.864;2023-02-01T07:48:25;98833.84;;;0.40;78.36
75208;BME280;63795;55.684;37.864;2023-02-01T07:53:26;98834.09;;;0.51;78.29
75208;BME280;63795;55.684;37.864;2023-02-01T07:58:27;98828.44;;;0.47;77.88
75208;BME280;63795;55.684;37.864;2023-02-01T08:03:27;98834.03;;;0.47;77.85
75208;BME280;63795;55.684;37.864;2023-02-01T08:08:28;98821.91;;;0.40;78.03
75208;BME280;63795;55.684;37.864;2023-02-01T08:13:29;98829.16;;;0.44;77.62
75208;BME280;63795;55.684;37.864;2023-02-01T08:18:30;98821.19;;;0.43;77.85
75208;BME280;63795;55.684;37.864;2023-02-01T08:23:30;98823.97;;;0.43;77.24
75208;BME280;63795;55.684;37.864;2023-02-01T08:28:31;98826.81;;;0.46;77.36
75208;BME280;63795;55.684;37.864;2023-02-01T08:33:32;98818.84;;;0.45;77.17
75208;BME280;63795;55.684;37.864;2023-02-01T08:38:35;98830.50;;;0.50;76.84
75208;BME280;63795;55.684;37.864;2023-02-01T08:43:37;98813.50;;;0.55;76.55
75208;BME280;63795;55.684;37.864;2023-02-01T08:48:38;98824.88;;;0.66;76.46
75208;BME280;63795;55.684;37.864;2023-02-01T08:53:39;98829.56;;;0.62;76.31
75208;BME280;63795;55.684;37.864;2023-02-01T08:58:43;98828.75;;;0.61;76.92
75208;BME280;63795;55.684;37.864;2023-02-01T09:03:43;98817.59;;;0.61;76.59
75208;BME280;63795;55.684;37.864;2023-02-01T09:08:44;98829.03;;;0.56;76.77
75208;BME280;63795;55.684;37.864;2023-02-01T09:13:45;98815.53;;;0.58;76.47
75208;BME280;63795;55.684;37.864;2023-02-01T09:18:45;98824.19;;;0.53;76.65
75208;BME280;63795;55.684;37.864;2023-02-01T09:23:46;98818.91;;;0.48;76.54
75208;BME280;63795;55.684;37.864;2023-02-01T09:28:48;98814.66;;;0.54;76.61
75208;BME280;63795;55.684;37.864;2023-02-01T09:33:49;98822.56;;;0.52;76.49
75208;BME280;63795;55.684;37.864;2023-02-01T09:38:49;98821.34;;;0.50;76.05
75208;BME280;63795;55.684;37.864;2023-02-01T09:49:23;98815.97;;;0.60;75.84
75208;BME280;63795;55.684;37.864;2023-02-01T09:54:44;98806.88;;;0.63;76.00
75208;BME280;63795;55.684;37.864;2023-02-01T09:59:50;98798.81;;;0.58;75.60
75208;BME280;63795;55.684;37.864;2023-02-01T10:04:57;98800.22;;;0.68;75.90
75208;BME280;63795;55.684;37.864;2023-02-01T10:10:13;98797.78;;;0.66;75.70
75208;BME280;63795;55.684;37.864;2023-02-01T10:15:35;98793.66;;;0.60;75.79
75208;BME280;63795;55.684;37.864;2023-02-01T10:26:25;98787.22;;;0.56;75.89
75208;BME280;63795;55.684;37.864;2023-02-01T10:31:33;98790.75;;;0.53;76.00
75208;BME280;63795;55.684;37.864;2023-02-01T10:36:39;98785.63;;;0.55;76.24
75208;BME280;63795;55.684;37.864;2023-02-01T10:41:41;98785.75;;;0.62;75.84
75208;BME280;63795;55.684;37.864;2023-02-01T10:46:43;98786.63;;;0.66;75.93
75208;BME280;63795;55.684;37.864;2023-02-01T10:52:15;98782.69;;;0.67;75.42
75208;BME280;63795;55.684;37.864;2023-02-01T10:57:25;98786.06;;;0.57;75.72
75208;BME280;63795;55.684;37.864;2023-02-01T11:02:32;98791.03;;;0.48;75.93
75208;BME280;63795;55.684;37.864;2023-02-01T11:07:33;98785.69;;;0.40;76.02
75208;BME280;63795;55.684;37.864;2023-02-01T11:12:39;98792.34;;;0.35;76.25
75208;BME280;63795;55.684;37.864;2023-02-01T11:17:42;98785.09;;;0.31;76.00
75208;BME280;63795;55.684;37.864;2023-02-01T11:22:48;98790.97;;;0.26;76.19
75208;BME280;63795;55.684;37.864;2023-02-01T11:27:50;98785.66;;;0.21;76.29
75208;BME280;63795;55.684;37.864;2023-02-01T11:32:51;98788.06;;;0.22;76.23
75208;BME280;63795;55.684;37.864;2023-02-01T11:37:58;98792.19;;;0.28;76.31
75208;BME280;63795;55.684;37.864;2023-02-01T11:43:23;98797.94;;;0.35;75.94
75208;BME280;63795;55.684;37.864;2023-02-01T11:48:27;98805.09;;;0.36;75.88
75208;BME280;63795;55.684;37.864;2023-02-01T11:59:25;98804.69;;;0.53;75.09
75208;BME280;63795;55.684;37.864;2023-02-01T12:05:00;98809.38;;;0.49;74.67
75208;BME280;63795;55.684;37.864;2023-02-01T12:16:07;98822.44;;;0.64;74.56
75208;BME280;63795;55.684;37.864;2023-02-01T12:21:38;98830.72;;;0.61;74.01
75208;BME280;63795;55.684;37.864;2023-02-01T12:32:32;98835.94;;;0.43;74.11
75208;BME280;63795;55.684;37.864;2023-02-01T12:38:02;98840.31;;;0.44;74.56
75208;BME280;63795;55.684;37.864;2023-02-01T12:48:28;98841.31;;;0.52;74.28
75208;BME280;63795;55.684;37.864;2023-02-01T12:53:46;98844.72;;;0.45;74.03
75208;BME280;63795;55.684;37.864;2023-02-01T12:58:55;98849.94;;;0.47;73.91
75208;BME280;63795;55.684;37.864;2023-02-01T13:04:53;98846.34;;;0.46;73.98
75208;BME280;63795;55.684;37.864;2023-02-01T13:10:03;98857.47;;;0.46;73.77
75208;BME280;63795;55.684;37.864;2023-02-01T13:15:23;98847.16;;;0.47;73.94
75208;BME280;63795;55.684;37.864;2023-02-01T13:25:41;98843.34;;;0.36;74.24
75208;BME280;63795;55.684;37.864;2023-02-01T13:31:06;98851.16;;;0.30;74.29
75208;BME280;63795;55.684;37.864;2023-02-01T13:36:21;98853.50;;;0.28;74.55
75208;BME280;63795;55.684;37.864;2023-02-01T13:42:01;98855.13;;;0.29;74.48
75208;BME280;63795;55.684;37.864;2023-02-01T13:47:32;98846.03;;;0.32;74.50
75208;BME280;63795;55.684;37.864;2023-02-01T13:52:39;98861.59;;;0.33;74.49
75208;BME280;63795;55.684;37.864;2023-02-01T13:57:42;98868.69;;;0.31;74.19
75208;BME280;63795;55.684;37.864;2023-02-01T14:23:43;98857.69;;;0.03;75.07
75208;BME280;63795;55.684;37.864;2023-02-01T14:34:24;98866.03;;;0.03;74.65
75208;BME280;63795;55.684;37.864;2023-02-01T14:44:47;98875.84;;;-0.03;74.66
75208;BME280;63795;55.684;37.864;2023-02-01T14:55:15;98890.94;;;0.12;74.51
75208;BME280;63795;55.684;37.864;2023-02-01T15:00:29;98880.78;;;0.04;74.62
75208;BME280;63795;55.684;37.864;2023-02-01T15:05:32;98885.38;;;-0.04;74.98
75208;BME280;63795;55.684;37.864;2023-02-01T15:10:42;98882.16;;;-0.06;74.97
75208;BME280;63795;55.684;37.864;2023-02-01T15:15:44;98880.16;;;-0.06;75.24
75208;BME280;63795;55.684;37.864;2023-02-01T15:20:56;98887.53;;;-0.13;75.03
75208;BME280;63795;55.684;37.864;2023-02-01T15:25:57;98897.84;;;-0.14;75.35
75208;BME280;63795;55.684;37.864;2023-02-01T15:31:02;98884.31;;;-0.15;75.46
75208;BME280;63795;55.684;37.864;2023-02-01T15:36:09;98902.19;;;-0.16;75.61
75208;BME280;63795;55.684;37.864;2023-02-01T15:41:15;98898.69;;;-0.13;75.44
75208;BME280;63795;55.684;37.864;2023-02-01T15:46:22;98904.88;;;-0.20;75.72
75208;BME280;63795;55.684;37.864;2023-02-01T15:51:25;98898.31;;;-0.27;76.08
75208;BME280;63795;55.684;37.864;2023-02-01T15:56:34;98908.38;;;-0.23;76.16
75208;BME280;63795;55.684;37.864;2023-02-01T16:01:38;98910.34;;;-0.23;76.08
75208;BME280;63795;55.684;37.864;2023-02-01T16:06:46;98902.38;;;-0.25;76.35
75208;BME280;63795;55.684;37.864;2023-02-01T16:12:00;98903.72;;;-0.34;76.84
75208;BME280;63795;55.684;37.864;2023-02-01T16:17:00;98906.84;;;-0.36;76.79
75208;BME280;63795;55.684;37.864;2023-02-01T16:22:01;98919.84;;;-0.40;76.71
75208;BME280;63795;55.684;37.864;2023-02-01T16:27:01;98907.47;;;-0.42;76.79
75208;BME280;63795;55.684;37.864;2023-02-01T16:32:03;98924.19;;;-0.42;77.26
75208;BME280;63795;55.684;37.864;2023-02-01T16:37:04;98910.41;;;-0.51;77.27
75208;BME280;63795;55.684;37.864;2023-02-01T16:42:11;98920.38;;;-0.50;77.45
75208;BME280;63795;55.684;37.864;2023-02-01T16:47:18;98921.19;;;-0.49;77.23
75208;BME280;63795;55.684;37.864;2023-02-01T16:52:21;98934.75;;;-0.48;77.35
75208;BME280;63795;55.684;37.864;2023-02-01T16:57:22;98924.78;;;-0.49;77.44
75208;BME280;63795;55.684;37.864;2023-02-01T17:02:27;98941.88;;;-0.35;77.03
75208;BME280;63795;55.684;37.864;2023-02-01T17:07:28;98932.47;;;-0.30;77.28
75208;BME280;63795;55.684;37.864;2023-02-01T17:12:30;98930.75;;;-0.35;76.86
75208;BME280;63795;55.684;37.864;2023-02-01T17:17:38;98928.31;;;-0.36;77.26
75208;BME280;63795;55.684;37.864;2023-02-01T17:22:42;98930.75;;;-0.35;76.84
75208;BME280;63795;55.684;37.864;2023-02-01T17:27:42;98935.19;;;-0.46;77.07
75208;BME280;63795;55.684;37.864;2023-02-01T17:32:44;98938.44;;;-0.44;77.04
75208;BME280;63795;55.684;37.864;2023-02-01T17:37:45;98919.41;;;-0.42;77.06
75208;BME280;63795;55.684;37.864;2023-02-01T17:42:46;98932.34;;;-0.34;76.73
75208;BME280;63795;55.684;37.864;2023-02-01T17:47:46;98936.38;;;-0.31;76.63
75208;BME280;63795;55.684;37.864;2023-02-01T17:52:47;98940.25;;;-0.36;76.83
75208;BME280;63795;55.684;37.864;2023-02-01T17:57:49;98937.13;;;-0.34;76.55
75208;BME280;63795;55.684;37.864;2023-02-01T18:02:49;98923.97;;;-0.49;76.62
75208;BME280;63795;55.684;37.864;2023-02-01T18:07:50;98925.31;;;-0.59;76.98
75208;BME280;63795;55.684;37.864;2023-02-01T18:12:50;98915.69;;;-0.61;76.97
75208;BME280;63795;55.684;37.864;2023-02-01T18:17:51;98911.56;;;-0.67;76.87
75208;BME280;63795;55.684;37.864;2023-02-01T18:22:52;98903.47;;;-0.72;76.89
75208;BME280;63795;55.684;37.864;2023-02-01T18:27:54;98909.66;;;-0.79;76.68
75208;BME280;63795;55.684;37.864;2023-02-01T18:32:56;98913.69;;;-0.76;76.92
75208;BME280;63795;55.684;37.864;2023-02-01T18:37:57;98921.22;;;-0.77;77.20
75208;BME280;63795;55.684;37.864;2023-02-01T18:42:58;98927.25;;;-0.75;77.04
75208;BME280;63795;55.684;37.864;2023-02-01T18:47:59;98915.91;;;-0.82;76.81
75208;BME280;63795;55.684;37.864;2023-02-01T18:53:02;98906.31;;;-0.84;76.90
75208;BME280;63795;55.684;37.864;2023-02-01T18:58:05;98917.91;;;-0.82;76.60
75208;BME280;63795;55.684;37.864;2023-02-01T19:03:13;98919.16;;;-0.80;76.50
75208;BME280;63795;55.684;37.864;2023-02-01T19:08:14;98913.50;;;-0.83;76.39
75208;BME280;63795;55.684;37.864;2023-02-01T19:13:15;98920.06;;;-0.76;76.56
75208;BME280;63795;55.684;37.864;2023-02-01T19:18:16;98919.25;;;-0.76;76.26
75208;BME280;63795;55.684;37.864;2023-02-01T19:23:22;98921.13;;;-0.80;76.52
75208;BME280;63795;55.684;37.864;2023-02-01T19:28:22;98928.31;;;-0.79;76.72
75208;BME280;63795;55.684;37.864;2023-02-01T19:33:23;98929.81;;;-0.82;76.96
75208;BME280;63795;55.684;37.864;2023-02-01T19:38:23;98923.97;;;-0.93;77.33
75208;BME280;63795;55.684;37.864;2023-02-01T19:43:24;98928.25;;;-0.95;77.41
75208;BME280;63795;55.684;37.864;2023-02-01T19:48:24;98925.38;;;-0.99;77.31
75208;BME280;63795;55.684;37.864;2023-02-01T19:53:26;98931.75;;;-0.98;77.66
75208;BME280;63795;55.684;37.864;2023-02-01T19:58:28;98937.75;;;-0.96;78.15
75208;BME280;63795;55.684;37.864;2023-02-01T20:03:28;98932.19;;;-0.96;78.05
75208;BME280;63795;55.684;37.864;2023-02-01T20:08:29;98925.72;;;-1.00;77.88
75208;BME280;63795;55.684;37.864;2023-02-01T20:13:29;98930.50;;;-1.01;78.11
75208;BME280;63795;55.684;37.864;2023-02-01T20:18:30;98929.88;;;-0.94;78.19
75208;BME280;63795;55.684;37.864;2023-02-01T20:23:31;98924.94;;;-1.01;78.11
75208;BME280;63795;55.684;37.864;2023-02-01T20:28:32;98941.63;;;-1.01;78.09
75208;BME280;63795;55.684;37.864;2023-02-01T20:33:33;98944.84;;;-0.99;78.42
75208;BME280;63795;55.684;37.864;2023-02-01T20:38:34;98930.53;;;-1.13;79.57
75208;BME280;63795;55.684;37.864;2023-02-01T20:43:35;98941.19;;;-1.15;78.82
75208;BME280;63795;55.684;37.864;2023-02-01T20:48:36;98935.06;;;-1.20;79.49
75208;BME280;63795;55.684;37.864;2023-02-01T20:53:37;98948.03;;;-1.24;79.49
75208;BME280;63795;55.684;37.864;2023-02-01T20:58:39;98941.22;;;-1.27;80.27
75208;BME280;63795;55.684;37.864;2023-02-01T21:03:39;98932.53;;;-1.25;79.54
75208;BME280;63795;55.684;37.864;2023-02-01T21:08:40;98920.84;;;-1.31;80.07
75208;BME280;63795;55.684;37.864;2023-02-01T21:13:43;98941.69;;;-1.25;80.75
75208;BME280;63795;55.684;37.864;2023-02-01T21:18:50;98940.06;;;-1.26;80.22
75208;BME280;63795;55.684;37.864;2023-02-01T21:23:54;98931.72;;;-1.26;80.11
75208;BME280;63795;55.684;37.864;2023-02-01T21:28:55;98931.13;;;-1.19;79.88
75208;BME280;63795;55.684;37.864;2023-02-01T21:33:55;98940.97;;;-1.22;79.98
75208;BME280;63795;55.684;37.864;2023-02-01T21:38:56;98931.81;;;-1.22;80.02
75208;BME280;63795;55.684;37.864;2023-02-01T21:44:03;98914.28;;;-1.38;79.99
75208;BME280;63795;55.684;37.864;2023-02-01T21:49:04;98941.22;;;-1.27;80.48
75208;BME280;63795;55.684;37.864;2023-02-01T21:54:06;98926.41;;;-1.31;80.27
75208;BME280;63795;55.684;37.864;2023-02-01T21:59:07;98937.03;;;-1.21;79.92
75208;BME280;63795;55.684;37.864;2023-02-01T22:04:09;98940.16;;;-1.22;79.75
75208;BME280;63795;55.684;37.864;2023-02-01T22:09:21;98939.25;;;-1.26;79.82
75208;BME280;63795;55.684;37.864;2023-02-01T22:14:22;98935.69;;;-1.27;79.83
75208;BME280;63795;55.684;37.864;2023-02-01T22:19:23;98943.06;;;-1.19;79.88
75208;BME280;63795;55.684;37.864;2023-02-01T22:24:23;98929.16;;;-1.19;79.39
75208;BME280;63795;55.684;37.864;2023-02-01T22:29:24;98937.50;;;-1.19;79.47
75208;BME280;63795;55.684;37.864;2023-02-01T22:34:25;98928.81;;;-1.17;79.51
75208;BME280;63795;55.684;37.864;2023-02-01T22:39:26;98933.31;;;-1.13;79.41
75208;BME280;63795;55.684;37.864;2023-02-01T22:44:26;98925.31;;;-1.14;79.23
75208;BME280;63795;55.684;37.864;2023-02-01T22:49:27;98934.38;;;-1.17;79.38
75208;BME280;63795;55.684;37.864;2023-02-01T22:54:28;98932.28;;;-1.20;79.27
75208;BME280;63795;55.684;37.864;2023-02-01T22:59:28;98933.34;;;-1.25;79.39
75208;BME280;63795;55.684;37.864;2023-02-01T23:04:28;98921.97;;;-1.20;79.78
75208;BME280;63795;55.684;37.864;2023-02-01T23:09:29;98924.28;;;-1.22;79.40
75208;BME280;63795;55.684;37.864;2023-02-01T23:14:29;98933.31;;;-1.13;79.53
75208;BME280;63795;55.684;37.864;2023-02-01T23:19:30;98916.19;;;-1.15;79.42
75208;BME280;63795;55.684;37.864;2023-02-01T23:24:30;98923.81;;;-1.12;79.42
75208;BME280;63795;55.684;37.864;2023-02-01T23:29:31;98931.59;;;-1.17;79.43
75208;BME280;63795;55.684;37.864;2023-02-01T23:34:31;98928.72;;;-1.21;79.45
75208;BME280;63795;55.684;37.864;2023-02-01T23:39:32;98931.50;;;-1.21;79.54
75208;BME280;63795;55.684;37.864;2023-02-01T23:44:32;98934.72;;;-1.19;79.61
75208;BME280;63795;55.684;37.864;2023-02-01T23:49:33;98929.34;;;-1.12;79.60
75208;BME280;63795;55.684;37.864;2023-02-01T23:54:33;98929.34;;;-1.12;79.31
75208;BME280;63795;55.684;37.864;2023-02-01T23:59:34;98927.31;;;-1.15;79.49
